createdAt,value
2018-05-31T00:00:32.378Z,24.26
2018-05-31T00:01:29.981Z,24.24
2018-05-31T00:02:29.935Z,24.26
2018-05-31T00:03:29.176Z,24.26
2018-05-31T00:04:29.263Z,24.27
2018-05-31T00:05:33.277Z,24.26
2018-05-31T00:06:29.226Z,24.27
2018-05-31T00:07:29.181Z,24.25
2018-05-31T00:08:30.221Z,24.23
2018-05-31T00:09:29.305Z,24.25
2018-05-31T00:10:29.268Z,24.22
2018-05-31T00:11:29.339Z,24.22
2018-05-31T00:12:30.268Z,24.22
2018-05-31T00:13:29.295Z,24.21
2018-05-31T00:14:33.258Z,24.2
2018-05-31T00:15:29.272Z,24.19
2018-05-31T00:16:29.306Z,24.19
2018-05-31T00:17:29.313Z,24.18
2018-05-31T00:18:29.294Z,24.15
2018-05-31T00:19:29.307Z,24.14
2018-05-31T00:20:29.273Z,24.14
2018-05-31T00:21:29.246Z,24.12
2018-05-31T00:22:29.269Z,24.09
2018-05-31T00:23:32.689Z,24.09
2018-05-31T00:24:29.239Z,24.08
2018-05-31T00:25:29.443Z,24.08
2018-05-31T00:26:29.241Z,24.07
2018-05-31T00:27:29.392Z,24.04
2018-05-31T00:28:29.262Z,24.02
2018-05-31T00:29:29.278Z,24.01
2018-05-31T00:30:29.335Z,24
2018-05-31T00:31:29.306Z,23.96
2018-05-31T00:32:32.073Z,23.97
2018-05-31T00:33:29.396Z,23.95
2018-05-31T00:34:29.264Z,23.92
2018-05-31T00:35:29.397Z,23.89
2018-05-31T00:36:29.264Z,23.9
2018-05-31T00:37:29.318Z,23.88
2018-05-31T00:38:29.286Z,23.88
2018-05-31T00:39:29.405Z,23.87
2018-05-31T00:40:29.278Z,23.85
2018-05-31T00:41:30.591Z,23.84
2018-05-31T00:42:29.427Z,23.83
2018-05-31T00:43:29.323Z,23.83
2018-05-31T00:44:29.340Z,23.79
2018-05-31T00:45:29.324Z,23.79
2018-05-31T00:46:30.199Z,23.75
2018-05-31T00:47:29.439Z,23.73
2018-05-31T00:48:29.261Z,23.64
2018-05-31T00:49:29.393Z,23.45
2018-05-31T00:50:29.354Z,23.42
2018-05-31T00:51:29.347Z,23.48
2018-05-31T00:52:29.521Z,23.47
2018-05-31T00:53:29.413Z,23.47
2018-05-31T00:54:29.354Z,23.46
2018-05-31T00:55:29.391Z,23.42
2018-05-31T00:56:29.351Z,23.4
2018-05-31T00:57:29.363Z,23.37
2018-05-31T00:58:29.292Z,23.33
2018-05-31T00:59:29.268Z,23.29
2018-05-31T01:00:33.369Z,23.27
2018-05-31T01:01:29.326Z,23.21
2018-05-31T01:02:29.482Z,23.12
2018-05-31T01:03:29.361Z,22.98
2018-05-31T01:04:29.467Z,22.85
2018-05-31T01:05:29.282Z,22.75
2018-05-31T01:06:29.336Z,22.65
2018-05-31T01:07:29.532Z,22.68
2018-05-31T01:08:29.283Z,22.7
2018-05-31T01:09:32.744Z,22.7
2018-05-31T01:10:29.381Z,22.7
2018-05-31T01:11:29.368Z,22.69
2018-05-31T01:12:29.365Z,22.71
2018-05-31T01:13:29.458Z,22.72
2018-05-31T01:14:29.328Z,22.71
2018-05-31T01:15:29.343Z,22.7
2018-05-31T01:16:29.304Z,22.71
2018-05-31T01:17:29.358Z,22.71
2018-05-31T01:18:32.288Z,22.71
2018-05-31T01:19:29.371Z,22.71
2018-05-31T01:20:29.457Z,22.73
2018-05-31T01:21:29.521Z,22.73
2018-05-31T01:22:29.439Z,22.76
2018-05-31T01:23:29.464Z,22.77
2018-05-31T01:24:29.392Z,22.75
2018-05-31T01:25:29.363Z,22.75
2018-05-31T01:26:29.373Z,22.74
2018-05-31T01:27:31.307Z,22.74
2018-05-31T01:28:29.340Z,22.74
2018-05-31T01:29:29.292Z,22.74
2018-05-31T01:30:29.354Z,22.75
2018-05-31T01:31:29.363Z,22.75
2018-05-31T01:32:29.326Z,22.74
2018-05-31T01:33:29.393Z,22.78
2018-05-31T01:34:29.174Z,22.76
2018-05-31T01:35:29.181Z,22.77
2018-05-31T01:36:30.550Z,22.74
2018-05-31T01:37:29.185Z,22.73
2018-05-31T01:38:29.180Z,22.71
2018-05-31T01:39:29.180Z,22.69
2018-05-31T01:40:29.153Z,22.67
2018-05-31T01:41:29.440Z,22.7
2018-05-31T01:42:29.391Z,22.7
2018-05-31T01:43:29.210Z,22.69
2018-05-31T01:44:29.187Z,22.7
2018-05-31T01:45:30.234Z,22.68
2018-05-31T01:46:29.241Z,22.69
2018-05-31T01:47:29.194Z,22.68
2018-05-31T01:48:29.192Z,22.68
2018-05-31T01:49:29.216Z,22.68
2018-05-31T01:50:29.229Z,22.65
2018-05-31T01:51:29.236Z,22.66
2018-05-31T01:52:29.166Z,22.68
2018-05-31T01:53:29.308Z,22.64
2018-05-31T01:54:29.668Z,22.64
2018-05-31T01:55:33.480Z,22.63
2018-05-31T01:56:29.207Z,22.63
2018-05-31T01:57:29.226Z,22.63
2018-05-31T01:58:29.193Z,22.59
2018-05-31T01:59:29.228Z,22.62
2018-05-31T02:00:29.240Z,22.59
2018-05-31T02:01:29.204Z,22.6
2018-05-31T02:02:29.216Z,22.59
2018-05-31T02:03:29.276Z,22.56
2018-05-31T02:04:32.748Z,22.56
2018-05-31T02:05:29.208Z,22.49
2018-05-31T02:06:29.175Z,22.49
2018-05-31T02:07:29.223Z,22.49
2018-05-31T02:08:29.213Z,22.48
2018-05-31T02:09:29.216Z,22.45
2018-05-31T02:10:29.193Z,22.45
2018-05-31T02:11:29.240Z,22.39
2018-05-31T02:12:29.416Z,22.34
2018-05-31T02:13:32.737Z,22.32
2018-05-31T02:14:29.406Z,22.3
2018-05-31T02:15:29.225Z,22.23
2018-05-31T02:16:29.234Z,22.23
2018-05-31T02:17:29.259Z,22.22
2018-05-31T02:18:29.338Z,22.12
2018-05-31T02:19:29.195Z,22.06
2018-05-31T02:20:29.241Z,22.03
2018-05-31T02:21:29.300Z,22
2018-05-31T02:22:32.656Z,21.98
2018-05-31T02:23:29.302Z,21.97
2018-05-31T02:24:29.244Z,21.94
2018-05-31T02:25:29.236Z,21.95
2018-05-31T02:26:29.393Z,21.92
2018-05-31T02:27:29.261Z,21.91
2018-05-31T02:28:29.202Z,21.93
2018-05-31T02:29:29.264Z,21.9
2018-05-31T02:30:29.234Z,21.89
2018-05-31T02:31:33.138Z,21.88
2018-05-31T02:32:29.203Z,21.91
2018-05-31T02:33:29.265Z,21.88
2018-05-31T02:34:29.259Z,21.85
2018-05-31T02:35:29.217Z,21.8
2018-05-31T02:36:29.258Z,21.81
2018-05-31T02:37:29.219Z,21.7
2018-05-31T02:38:29.293Z,21.68
2018-05-31T02:39:29.207Z,21.7
2018-05-31T02:40:31.963Z,21.66
2018-05-31T02:41:29.223Z,21.7
2018-05-31T02:42:29.281Z,21.75
2018-05-31T02:43:29.277Z,21.75
2018-05-31T02:44:29.278Z,21.77
2018-05-31T02:45:29.286Z,21.74
2018-05-31T02:46:29.262Z,21.74
2018-05-31T02:47:29.304Z,21.73
2018-05-31T02:48:29.298Z,21.72
2018-05-31T02:49:31.374Z,21.75
2018-05-31T02:50:29.313Z,21.71
2018-05-31T02:51:29.373Z,21.7
2018-05-31T02:52:29.340Z,21.69
2018-05-31T02:53:29.348Z,21.68
2018-05-31T02:54:29.359Z,21.68
2018-05-31T02:55:29.308Z,21.69
2018-05-31T02:56:29.294Z,21.68
2018-05-31T02:57:29.371Z,21.68
2018-05-31T02:58:30.645Z,21.68
2018-05-31T02:59:29.413Z,21.69
2018-05-31T03:00:29.380Z,21.69
2018-05-31T03:01:29.418Z,21.68
2018-05-31T03:02:29.402Z,21.66
2018-05-31T03:03:29.441Z,21.65
2018-05-31T03:04:29.422Z,21.64
2018-05-31T03:05:29.360Z,21.64
2018-05-31T03:06:29.395Z,21.64
2018-05-31T03:07:31.046Z,21.68
2018-05-31T03:08:29.432Z,21.67
2018-05-31T03:09:29.765Z,21.66
2018-05-31T03:10:29.376Z,21.69
2018-05-31T03:11:29.471Z,21.68
2018-05-31T03:12:29.379Z,21.66
2018-05-31T03:13:29.413Z,21.67
2018-05-31T03:14:29.383Z,21.65
2018-05-31T03:15:29.497Z,21.64
2018-05-31T03:16:30.321Z,21.62
2018-05-31T03:17:29.403Z,21.59
2018-05-31T03:18:29.418Z,21.59
2018-05-31T03:19:29.449Z,21.59
2018-05-31T03:20:29.388Z,21.57
2018-05-31T03:21:29.398Z,21.57
2018-05-31T03:22:29.759Z,21.54
2018-05-31T03:23:29.438Z,21.54
2018-05-31T03:24:29.489Z,21.52
2018-05-31T03:25:30.271Z,21.51
2018-05-31T03:26:29.371Z,21.48
2018-05-31T03:27:29.475Z,21.48
2018-05-31T03:28:29.417Z,21.47
2018-05-31T03:29:29.394Z,21.44
2018-05-31T03:30:29.466Z,21.44
2018-05-31T03:31:29.451Z,21.42
2018-05-31T03:32:29.444Z,21.42
2018-05-31T03:33:29.416Z,21.42
2018-05-31T03:34:30.863Z,21.41
2018-05-31T03:35:29.471Z,21.38
2018-05-31T03:36:29.472Z,21.36
2018-05-31T03:37:29.394Z,21.36
2018-05-31T03:38:29.428Z,21.35
2018-05-31T03:39:29.446Z,21.34
2018-05-31T03:40:29.469Z,21.33
2018-05-31T03:41:29.409Z,21.3
2018-05-31T03:42:29.523Z,21.21
2018-05-31T03:43:31.282Z,21.2
2018-05-31T03:44:29.443Z,21.21
2018-05-31T03:45:29.475Z,21.18
2018-05-31T03:46:29.517Z,21.17
2018-05-31T03:47:30.372Z,21.16
2018-05-31T03:48:29.999Z,21.17
2018-05-31T03:49:29.392Z,21.16
2018-05-31T03:50:29.475Z,21.13
2018-05-31T03:51:29.443Z,21.12
2018-05-31T03:52:30.990Z,21.16
2018-05-31T03:53:30.018Z,21.17
2018-05-31T03:54:29.568Z,21.2
2018-05-31T03:55:29.642Z,21.17
2018-05-31T03:56:29.465Z,21.19
2018-05-31T03:57:29.494Z,21.2
2018-05-31T03:58:29.459Z,21.21
2018-05-31T03:59:29.501Z,21.19
2018-05-31T04:00:29.553Z,21.19
2018-05-31T04:01:31.679Z,21.14
2018-05-31T04:02:29.490Z,21.09
2018-05-31T04:03:29.470Z,20.92
2018-05-31T04:04:29.428Z,20.86
2018-05-31T04:05:29.467Z,20.8
2018-05-31T04:06:29.550Z,20.83
2018-05-31T04:07:29.427Z,20.84
2018-05-31T04:08:29.454Z,20.84
2018-05-31T04:09:29.423Z,20.71
2018-05-31T04:10:31.041Z,20.76
2018-05-31T04:11:29.588Z,20.78
2018-05-31T04:12:29.526Z,20.78
2018-05-31T04:13:29.528Z,20.78
2018-05-31T04:14:29.539Z,20.81
2018-05-31T04:15:29.421Z,20.81
2018-05-31T04:16:29.563Z,20.77
2018-05-31T04:17:29.547Z,20.66
2018-05-31T04:18:29.589Z,20.62
2018-05-31T04:19:31.133Z,20.63
2018-05-31T04:20:29.652Z,20.66
2018-05-31T04:21:29.729Z,20.67
2018-05-31T04:22:29.289Z,20.69
2018-05-31T04:23:29.451Z,20.71
2018-05-31T04:24:29.271Z,20.74
2018-05-31T04:25:29.619Z,20.74
2018-05-31T04:26:29.535Z,20.78
2018-05-31T04:27:29.518Z,20.78
2018-05-31T04:28:31.279Z,20.78
2018-05-31T04:29:29.499Z,20.8
2018-05-31T04:30:29.590Z,20.78
2018-05-31T04:31:29.296Z,20.79
2018-05-31T04:32:29.326Z,20.8
2018-05-31T04:33:29.331Z,20.82
2018-05-31T04:34:29.693Z,20.84
2018-05-31T04:35:29.338Z,20.84
2018-05-31T04:36:29.527Z,20.78
2018-05-31T04:37:31.186Z,20.82
2018-05-31T04:38:29.299Z,20.83
2018-05-31T04:39:29.291Z,20.81
2018-05-31T04:40:29.347Z,20.78
2018-05-31T04:41:29.319Z,20.76
2018-05-31T04:42:29.848Z,20.79
2018-05-31T04:43:29.337Z,20.8
2018-05-31T04:44:29.369Z,20.81
2018-05-31T04:45:29.274Z,20.81
2018-05-31T04:46:31.924Z,20.8
2018-05-31T04:47:29.352Z,20.86
2018-05-31T04:48:29.308Z,20.87
2018-05-31T04:49:29.347Z,20.82
2018-05-31T04:50:29.361Z,20.79
2018-05-31T04:51:29.277Z,20.8
2018-05-31T04:52:29.390Z,20.81
2018-05-31T04:53:29.807Z,20.82
2018-05-31T04:54:29.363Z,20.77
2018-05-31T04:55:31.888Z,20.77
2018-05-31T04:56:29.359Z,20.8
2018-05-31T04:57:29.342Z,20.84
2018-05-31T04:58:29.309Z,20.85
2018-05-31T04:59:29.337Z,20.8
2018-05-31T05:00:29.673Z,20.77
2018-05-31T05:01:29.356Z,20.8
2018-05-31T05:02:29.477Z,20.82
2018-05-31T05:03:29.352Z,20.86
2018-05-31T05:04:31.790Z,20.87
2018-05-31T05:05:29.347Z,20.89
2018-05-31T05:06:29.384Z,20.92
2018-05-31T05:07:29.305Z,20.86
2018-05-31T05:08:29.317Z,20.84
2018-05-31T05:09:29.324Z,20.81
2018-05-31T05:10:29.314Z,20.75
2018-05-31T05:11:29.302Z,20.73
2018-05-31T05:12:29.340Z,20.75
2018-05-31T05:13:32.293Z,20.8
2018-05-31T05:14:29.328Z,20.78
2018-05-31T05:15:29.340Z,20.77
2018-05-31T05:16:29.309Z,20.74
2018-05-31T05:17:29.402Z,20.74
2018-05-31T05:18:29.319Z,20.76
2018-05-31T05:19:29.363Z,20.73
2018-05-31T05:20:29.377Z,20.73
2018-05-31T05:21:29.406Z,20.67
2018-05-31T05:22:32.205Z,20.6
2018-05-31T05:23:29.404Z,20.6
2018-05-31T05:24:29.376Z,20.62
2018-05-31T05:25:29.419Z,20.65
2018-05-31T05:26:30.381Z,20.72
2018-05-31T05:27:29.356Z,20.74
2018-05-31T05:28:29.427Z,20.76
2018-05-31T05:29:29.357Z,20.76
2018-05-31T05:30:29.309Z,20.78
2018-05-31T05:31:32.469Z,20.82
2018-05-31T05:32:29.967Z,20.83
2018-05-31T05:33:29.367Z,20.83
2018-05-31T05:34:29.461Z,20.84
2018-05-31T05:35:29.344Z,20.85
2018-05-31T05:36:29.514Z,20.86
2018-05-31T05:37:29.358Z,20.85
2018-05-31T05:38:29.463Z,20.87
2018-05-31T05:39:29.417Z,20.87
2018-05-31T05:40:32.963Z,20.91
2018-05-31T05:41:29.435Z,20.92
2018-05-31T05:42:29.448Z,20.94
2018-05-31T05:43:29.760Z,20.99
2018-05-31T05:44:29.458Z,20.99
2018-05-31T05:45:29.519Z,21.03
2018-05-31T05:46:29.447Z,21.05
2018-05-31T05:47:29.464Z,21.06
2018-05-31T05:48:29.463Z,21.08
2018-05-31T05:49:33.226Z,21.06
2018-05-31T05:50:29.678Z,21.03
2018-05-31T05:51:29.479Z,21.06
2018-05-31T05:52:29.592Z,21.1
2018-05-31T05:53:29.509Z,21.11
2018-05-31T05:54:29.483Z,21.08
2018-05-31T05:55:29.476Z,21.09
2018-05-31T05:56:30.267Z,21.12
2018-05-31T05:57:29.525Z,21.14
2018-05-31T05:58:33.339Z,21.16
2018-05-31T05:59:29.499Z,21.2
2018-05-31T06:00:29.584Z,21.23
2018-05-31T06:01:29.585Z,21.24
2018-05-31T06:02:29.496Z,21.2
2018-05-31T06:03:29.514Z,21.2
2018-05-31T06:04:29.504Z,21.19
2018-05-31T06:05:29.689Z,21.26
2018-05-31T06:06:29.519Z,21.22
2018-05-31T06:07:29.605Z,21.23
2018-05-31T06:08:29.481Z,21.28
2018-05-31T06:09:29.542Z,21.3
2018-05-31T06:10:29.497Z,21.34
2018-05-31T06:11:29.526Z,21.35
2018-05-31T06:12:29.540Z,21.29
2018-05-31T06:13:30.405Z,21.33
2018-05-31T06:14:29.535Z,21.34
2018-05-31T06:15:31.686Z,21.38
2018-05-31T06:16:29.559Z,21.41
2018-05-31T06:17:29.647Z,21.41
2018-05-31T06:18:29.533Z,21.44
2018-05-31T06:19:29.540Z,21.46
2018-05-31T06:20:29.478Z,21.46
2018-05-31T06:21:29.540Z,21.47
2018-05-31T06:22:29.512Z,21.49
2018-05-31T06:23:29.515Z,21.51
2018-05-31T06:24:31.333Z,21.52
2018-05-31T06:25:29.512Z,21.49
2018-05-31T06:26:32.084Z,21.51
2018-05-31T06:27:29.523Z,21.57
2018-05-31T06:28:29.525Z,21.59
2018-05-31T06:29:29.678Z,21.64
2018-05-31T06:30:29.572Z,21.61
2018-05-31T06:31:29.535Z,21.58
2018-05-31T06:32:29.600Z,21.59
2018-05-31T06:33:32.731Z,21.63
2018-05-31T06:34:29.444Z,21.65
2018-05-31T06:35:29.458Z,21.66
2018-05-31T06:36:29.444Z,21.71
2018-05-31T06:37:30.027Z,21.73
2018-05-31T06:38:29.814Z,21.77
2018-05-31T06:39:29.443Z,21.79
2018-05-31T06:40:29.521Z,21.8
2018-05-31T06:41:29.484Z,21.8
2018-05-31T06:42:29.656Z,21.83
2018-05-31T06:43:29.481Z,21.75
2018-05-31T06:44:29.556Z,21.78
2018-05-31T06:45:29.464Z,21.83
2018-05-31T06:46:29.456Z,21.84
2018-05-31T06:47:29.512Z,21.85
2018-05-31T06:48:29.435Z,21.83
2018-05-31T06:49:29.421Z,21.81
2018-05-31T06:50:29.429Z,21.83
2018-05-31T06:51:29.597Z,21.84
2018-05-31T06:52:29.505Z,21.83
2018-05-31T06:53:29.429Z,21.87
2018-05-31T06:54:29.507Z,21.92
2018-05-31T06:55:29.447Z,21.97
2018-05-31T06:56:29.458Z,21.97
2018-05-31T06:57:29.489Z,21.98
2018-05-31T06:58:29.494Z,22.01
2018-05-31T06:59:29.489Z,22.01
2018-05-31T07:00:29.487Z,22.03
2018-05-31T07:01:29.462Z,22.09
2018-05-31T07:02:29.617Z,22.12
2018-05-31T07:03:29.650Z,22.18
2018-05-31T07:04:29.317Z,22.21
2018-05-31T07:05:29.320Z,22.26
2018-05-31T07:06:29.318Z,22.3
2018-05-31T07:07:29.332Z,22.33
2018-05-31T07:08:29.334Z,22.35
2018-05-31T07:09:29.507Z,22.36
2018-05-31T07:10:29.352Z,22.4
2018-05-31T07:11:29.341Z,22.45
2018-05-31T07:12:29.525Z,22.47
2018-05-31T07:13:29.666Z,22.51
2018-05-31T07:14:29.768Z,22.54
2018-05-31T07:15:29.636Z,22.55
2018-05-31T07:16:29.347Z,22.6
2018-05-31T07:17:29.381Z,22.6
2018-05-31T07:18:29.385Z,22.63
2018-05-31T07:19:29.319Z,22.68
2018-05-31T07:20:29.343Z,22.71
2018-05-31T07:21:29.355Z,22.76
2018-05-31T07:22:29.368Z,22.77
2018-05-31T07:23:29.385Z,22.8
2018-05-31T07:24:29.332Z,22.8
2018-05-31T07:25:29.363Z,22.77
2018-05-31T07:26:29.352Z,22.78
2018-05-31T07:27:29.329Z,22.8
2018-05-31T07:28:29.390Z,22.84
2018-05-31T07:29:29.329Z,22.85
2018-05-31T07:30:29.405Z,22.86
2018-05-31T07:31:29.367Z,22.91
2018-05-31T07:32:29.369Z,22.92
2018-05-31T07:33:29.377Z,22.97
2018-05-31T07:34:29.364Z,22.99
2018-05-31T07:35:29.375Z,23.04
2018-05-31T07:36:29.373Z,23.08
2018-05-31T07:37:29.469Z,23.1
2018-05-31T07:38:29.377Z,23.14
2018-05-31T07:39:29.365Z,23.19
2018-05-31T07:40:29.388Z,23.21
2018-05-31T07:41:29.310Z,23.26
2018-05-31T07:42:29.365Z,23.28
2018-05-31T07:43:29.588Z,23.33
2018-05-31T07:44:29.383Z,23.38
2018-05-31T07:45:29.376Z,23.39
2018-05-31T07:46:30.083Z,23.37
2018-05-31T07:47:29.368Z,23.38
2018-05-31T07:48:29.418Z,23.36
2018-05-31T07:49:29.402Z,23.35
2018-05-31T07:50:29.546Z,23.33
2018-05-31T07:51:29.429Z,23.34
2018-05-31T07:52:29.352Z,23.36
2018-05-31T07:53:29.353Z,23.39
2018-05-31T07:54:29.366Z,23.42
2018-05-31T07:55:29.598Z,23.47
2018-05-31T07:56:29.410Z,23.49
2018-05-31T07:57:29.393Z,23.52
2018-05-31T07:58:29.444Z,23.55
2018-05-31T07:59:29.354Z,23.59
2018-05-31T08:00:29.357Z,23.59
2018-05-31T08:01:29.421Z,23.55
2018-05-31T08:02:29.382Z,23.46
2018-05-31T08:03:29.418Z,23.5
2018-05-31T08:04:29.392Z,23.49
2018-05-31T08:05:29.363Z,23.51
2018-05-31T08:06:29.381Z,23.55
2018-05-31T08:07:29.391Z,23.6
2018-05-31T08:08:29.438Z,23.64
2018-05-31T08:09:29.375Z,23.71
2018-05-31T08:10:29.411Z,23.76
2018-05-31T08:11:29.382Z,23.81
2018-05-31T08:12:29.418Z,23.83
2018-05-31T08:13:29.385Z,23.87
2018-05-31T08:14:29.391Z,23.83
2018-05-31T08:15:29.352Z,23.84
2018-05-31T08:16:29.401Z,23.85
2018-05-31T08:17:29.425Z,23.84
2018-05-31T08:18:29.394Z,23.84
2018-05-31T08:19:29.388Z,23.82
2018-05-31T08:20:29.371Z,23.73
2018-05-31T08:21:29.383Z,23.74
2018-05-31T08:22:29.412Z,23.76
2018-05-31T08:23:29.368Z,23.75
2018-05-31T08:24:29.377Z,23.74
2018-05-31T08:25:29.439Z,23.78
2018-05-31T08:26:29.496Z,23.78
2018-05-31T08:27:29.366Z,23.84
2018-05-31T08:28:29.374Z,23.89
2018-05-31T08:29:29.363Z,23.95
2018-05-31T08:30:29.399Z,24
2018-05-31T08:31:30.404Z,24.08
2018-05-31T08:32:29.416Z,24.13
2018-05-31T08:33:29.449Z,24.18
2018-05-31T08:34:29.495Z,24.17
2018-05-31T08:35:29.419Z,24.19
2018-05-31T08:36:29.451Z,24.05
2018-05-31T08:37:29.483Z,24.07
2018-05-31T08:38:29.607Z,24.11
2018-05-31T08:39:29.508Z,24.13
2018-05-31T08:40:29.549Z,24.16
2018-05-31T08:41:29.647Z,24.22
2018-05-31T08:42:29.524Z,24.27
2018-05-31T08:43:29.479Z,24.34
2018-05-31T08:44:29.517Z,24.4
2018-05-31T08:45:29.521Z,24.37
2018-05-31T08:46:29.501Z,24.31
2018-05-31T08:47:29.499Z,24.29
2018-05-31T08:48:29.503Z,24.15
2018-05-31T08:49:29.530Z,24.19
2018-05-31T08:50:29.552Z,24.17
2018-05-31T08:51:29.528Z,24.17
2018-05-31T08:52:29.533Z,24.19
2018-05-31T08:53:29.549Z,24.11
2018-05-31T08:54:29.577Z,24.11
2018-05-31T08:55:29.613Z,24.14
2018-05-31T08:56:29.514Z,24.18
2018-05-31T08:57:29.529Z,24.23
2018-05-31T08:58:30.864Z,24.28
2018-05-31T08:59:29.561Z,24.35
2018-05-31T09:00:29.550Z,24.4
2018-05-31T09:01:29.660Z,24.46
2018-05-31T09:02:29.602Z,24.52
2018-05-31T09:03:29.563Z,24.59
2018-05-31T09:04:29.576Z,24.56
2018-05-31T09:05:29.513Z,24.62
2018-05-31T09:06:29.649Z,24.64
2018-05-31T09:07:29.521Z,24.66
2018-05-31T09:08:29.579Z,24.69
2018-05-31T09:09:30.337Z,24.69
2018-05-31T09:10:29.537Z,24.71
2018-05-31T09:11:29.688Z,24.77
2018-05-31T09:12:29.661Z,24.8
2018-05-31T09:13:29.598Z,24.77
2018-05-31T09:14:29.646Z,24.69
2018-05-31T09:15:29.648Z,24.63
2018-05-31T09:16:30.862Z,24.54
2018-05-31T09:17:29.624Z,24.54
2018-05-31T09:18:29.667Z,24.58
2018-05-31T09:19:29.541Z,24.59
2018-05-31T09:20:29.619Z,24.64
2018-05-31T09:21:29.615Z,24.65
2018-05-31T09:22:29.566Z,24.69
2018-05-31T09:23:29.641Z,24.77
2018-05-31T09:24:29.819Z,24.82
2018-05-31T09:25:30.151Z,24.82
2018-05-31T09:26:29.565Z,24.87
2018-05-31T09:27:29.636Z,24.94
2018-05-31T09:28:30.278Z,24.99
2018-05-31T09:29:29.788Z,24.98
2018-05-31T09:30:29.765Z,25.03
2018-05-31T09:31:29.527Z,25.12
2018-05-31T09:32:29.525Z,25.07
2018-05-31T09:33:29.540Z,25.04
2018-05-31T09:34:29.589Z,25.07
2018-05-31T09:35:29.532Z,25.11
2018-05-31T09:36:29.553Z,25.19
2018-05-31T09:37:29.884Z,25.22
2018-05-31T09:38:29.842Z,25.29
2018-05-31T09:39:29.845Z,25.32
2018-05-31T09:40:29.565Z,25.38
2018-05-31T09:41:29.577Z,25.43
2018-05-31T09:42:29.667Z,25.49
2018-05-31T09:43:29.726Z,25.55
2018-05-31T09:44:29.608Z,25.59
2018-05-31T09:45:29.660Z,25.62
2018-05-31T09:46:31.235Z,25.66
2018-05-31T09:47:29.572Z,25.69
2018-05-31T09:48:29.739Z,25.71
2018-05-31T09:49:29.582Z,25.65
2018-05-31T09:50:30.310Z,25.72
2018-05-31T09:51:32.089Z,25.74
2018-05-31T09:52:29.606Z,25.78
2018-05-31T09:53:29.636Z,25.8
2018-05-31T09:54:29.618Z,25.82
2018-05-31T09:55:29.725Z,25.79
2018-05-31T09:56:29.870Z,25.72
2018-05-31T09:57:29.742Z,25.69
2018-05-31T09:58:29.716Z,25.72
2018-05-31T09:59:29.679Z,25.76
2018-05-31T10:00:29.611Z,25.81
2018-05-31T10:01:29.626Z,25.86
2018-05-31T10:02:29.632Z,25.91
2018-05-31T10:03:29.457Z,25.95
2018-05-31T10:04:29.615Z,25.96
2018-05-31T10:05:29.621Z,25.91
2018-05-31T10:06:29.454Z,25.96
2018-05-31T10:07:29.430Z,26.04
2018-05-31T10:08:29.834Z,26.1
2018-05-31T10:09:29.481Z,26.08
2018-05-31T10:10:29.497Z,26.1
2018-05-31T10:11:29.498Z,26.11
2018-05-31T10:12:29.485Z,26.1
2018-05-31T10:13:29.512Z,26.2
2018-05-31T10:14:29.452Z,26.25
2018-05-31T10:15:29.492Z,26.3
2018-05-31T10:16:29.494Z,26.29
2018-05-31T10:17:29.450Z,26.24
2018-05-31T10:18:29.425Z,26.21
2018-05-31T10:19:29.715Z,26.23
2018-05-31T10:20:29.500Z,26.26
2018-05-31T10:21:29.726Z,26.27
2018-05-31T10:22:30.120Z,26.29
2018-05-31T10:23:29.996Z,26.3
2018-05-31T10:24:30.338Z,26.38
2018-05-31T10:25:29.457Z,26.35
2018-05-31T10:26:29.492Z,26.35
2018-05-31T10:27:29.519Z,26.38
2018-05-31T10:28:30.054Z,26.44
2018-05-31T10:29:29.913Z,26.45
2018-05-31T10:30:29.835Z,26.43
2018-05-31T10:31:29.834Z,26.42
2018-05-31T10:32:30.055Z,26.51
2018-05-31T10:33:29.932Z,26.51
2018-05-31T10:34:29.828Z,26.52
2018-05-31T10:35:29.916Z,26.59
2018-05-31T10:36:29.996Z,26.54
2018-05-31T10:37:29.879Z,26.51
2018-05-31T10:38:29.972Z,26.53
2018-05-31T10:39:30.859Z,26.51
2018-05-31T10:40:29.822Z,26.53
2018-05-31T10:41:29.665Z,26.55
2018-05-31T10:42:29.948Z,26.57
2018-05-31T10:43:29.837Z,26.62
2018-05-31T10:44:30.009Z,26.65
2018-05-31T10:45:29.836Z,26.68
2018-05-31T10:46:30.363Z,26.72
2018-05-31T10:47:30.294Z,26.77
2018-05-31T10:48:30.027Z,26.74
2018-05-31T10:49:29.972Z,26.77
2018-05-31T10:50:29.938Z,26.66
2018-05-31T10:51:29.717Z,26.56
2018-05-31T10:52:30.049Z,26.56
2018-05-31T10:53:30.065Z,26.62
2018-05-31T10:54:29.900Z,26.67
2018-05-31T10:55:29.942Z,26.71
2018-05-31T10:56:29.707Z,26.8
2018-05-31T10:57:29.737Z,26.84
2018-05-31T10:58:29.631Z,26.92
2018-05-31T10:59:29.621Z,26.94
2018-05-31T11:00:29.633Z,26.84
2018-05-31T11:01:29.656Z,26.9
2018-05-31T11:02:30.056Z,26.98
2018-05-31T11:03:29.480Z,26.94
2018-05-31T11:04:29.593Z,27
2018-05-31T11:05:29.677Z,27.07
2018-05-31T11:06:29.538Z,27.14
2018-05-31T11:07:29.785Z,27.19
2018-05-31T11:08:29.543Z,27.25
2018-05-31T11:09:29.527Z,27.2
2018-05-31T11:10:29.845Z,27.26
2018-05-31T11:11:29.524Z,27.31
2018-05-31T11:12:29.514Z,27.36
2018-05-31T11:13:30.420Z,27.43
2018-05-31T11:14:29.504Z,27.48
2018-05-31T11:15:29.579Z,27.5
2018-05-31T11:16:29.546Z,27.43
2018-05-31T11:17:29.502Z,27.36
2018-05-31T11:18:29.565Z,27.35
2018-05-31T11:19:29.735Z,27.35
2018-05-31T11:20:29.463Z,27.34
2018-05-31T11:21:29.502Z,27.35
2018-05-31T11:22:29.580Z,27.39
2018-05-31T11:23:29.517Z,27.44
2018-05-31T11:24:29.496Z,27.47
2018-05-31T11:25:29.547Z,27.52
2018-05-31T11:26:30.165Z,27.55
2018-05-31T11:27:29.545Z,27.49
2018-05-31T11:28:30.304Z,27.54
2018-05-31T11:29:29.529Z,27.61
2018-05-31T11:30:29.493Z,27.57
2018-05-31T11:31:29.578Z,27.47
2018-05-31T11:32:29.486Z,27.45
2018-05-31T11:33:29.570Z,27.42
2018-05-31T11:34:29.692Z,27.41
2018-05-31T11:35:29.569Z,27.35
2018-05-31T11:36:31.288Z,27.38
2018-05-31T11:37:29.552Z,27.49
2018-05-31T11:38:29.634Z,27.45
2018-05-31T11:39:29.507Z,27.44
2018-05-31T11:40:29.550Z,27.48
2018-05-31T11:41:29.764Z,27.51
2018-05-31T11:42:29.698Z,27.57
2018-05-31T11:43:29.572Z,27.6
2018-05-31T11:44:29.552Z,27.64
2018-05-31T11:45:29.559Z,27.68
2018-05-31T11:46:29.673Z,27.74
2018-05-31T11:47:29.639Z,27.77
2018-05-31T11:48:29.595Z,27.8
2018-05-31T11:49:29.597Z,27.85
2018-05-31T11:50:29.601Z,27.82
2018-05-31T11:51:29.601Z,27.85
2018-05-31T11:52:29.601Z,27.86
2018-05-31T11:53:29.799Z,27.92
2018-05-31T11:54:29.637Z,27.92
2018-05-31T11:55:29.722Z,27.91
2018-05-31T11:56:30.290Z,27.95
2018-05-31T11:57:29.657Z,27.99
2018-05-31T11:58:29.714Z,27.99
2018-05-31T11:59:29.657Z,27.92
2018-05-31T12:00:29.985Z,27.93
2018-05-31T12:01:29.800Z,27.96
2018-05-31T12:02:29.674Z,27.93
2018-05-31T12:03:29.690Z,27.97
2018-05-31T12:04:29.699Z,28.04
2018-05-31T12:05:29.663Z,28.08
2018-05-31T12:06:30.043Z,28.19
2018-05-31T12:07:29.712Z,28.15
2018-05-31T12:08:29.750Z,28.13
2018-05-31T12:09:29.731Z,28.23
2018-05-31T12:10:29.806Z,28.27
2018-05-31T12:11:29.853Z,28.31
2018-05-31T12:12:29.666Z,28.28
2018-05-31T12:13:29.746Z,28.33
2018-05-31T12:14:29.777Z,28.37
2018-05-31T12:15:29.734Z,28.39
2018-05-31T12:16:29.683Z,28.43
2018-05-31T12:17:29.811Z,28.45
2018-05-31T12:18:29.732Z,28.4
2018-05-31T12:19:29.692Z,28.41
2018-05-31T12:20:29.680Z,28.42
2018-05-31T12:21:29.689Z,28.45
2018-05-31T12:22:29.730Z,28.5
2018-05-31T12:23:29.662Z,28.52
2018-05-31T12:24:29.737Z,28.47
2018-05-31T12:25:30.047Z,28.56
2018-05-31T12:26:29.694Z,28.58
2018-05-31T12:27:29.694Z,28.56
2018-05-31T12:28:29.939Z,28.56
2018-05-31T12:29:29.705Z,28.5
2018-05-31T12:30:29.737Z,28.44
2018-05-31T12:31:29.686Z,28.42
2018-05-31T12:32:29.702Z,28.42
2018-05-31T12:33:29.881Z,28.42
2018-05-31T12:34:29.692Z,28.34
2018-05-31T12:35:29.789Z,28.34
2018-05-31T12:36:30.555Z,28.34
2018-05-31T12:37:29.726Z,28.32
2018-05-31T12:38:30.575Z,28.27
2018-05-31T12:39:29.682Z,28.26
2018-05-31T12:40:29.728Z,28.23
2018-05-31T12:41:29.711Z,28.21
2018-05-31T12:42:29.674Z,28.16
2018-05-31T12:43:29.701Z,28.15
2018-05-31T12:44:29.937Z,28.13
2018-05-31T12:45:29.817Z,28.14
2018-05-31T12:46:29.689Z,28.12
2018-05-31T12:47:29.914Z,28.11
2018-05-31T12:48:29.774Z,28.04
2018-05-31T12:49:29.892Z,27.99
2018-05-31T12:50:29.783Z,27.9
2018-05-31T12:51:29.918Z,27.92
2018-05-31T12:52:29.783Z,27.94
2018-05-31T12:53:29.784Z,27.91
2018-05-31T12:54:29.864Z,27.9
2018-05-31T12:55:29.776Z,27.9